Vremea acum in Miercurea Nirajului - Romania

Vrei sa afli care e starea vremii acum in Mures - Romania? Dorim sa iti furnizam starea vremii pentru Mures - Romania. Starea vremii Mures - Romania pentru astazi.

Vremea acum in Miercurea Nirajului

Temperatura: 5 °C

Este: Senin
Se simte ca: 4.4 °C
Innorat: 22 %
Precipitatii: 0 %
Presiune atmosferica: 1021 hPa
Umiditate: 72%
Vizibilitate: 10 km
Vantul bate din SSE cu 4.3 km/h

Evolutia vremii in Miercurea Nirajului pe ore

Ora: 06:00
Senin
Temperatura: 4.2°C
Sansa de precipitatii: 0%
Ora Descriere Temp Se simte Precipitatii Umiditate Vant
00:00Senin6.7°6.7°0%70%S 2.2 KM/H
01:00Senin6.1°0%72%SSE 2.9 KM/H
02:00Senin7.1°6.6°0%67%S 4.7 KM/H
03:00Senin5.9°5.5°0%70%SSW 4 KM/H
04:00Senin4.4°0%72%SSE 4.3 KM/H
05:00Senin4.6°4.1°0%74%SE 4 KM/H
06:00Senin4.2°4.2°0%75%NNW 2.2 KM/H
07:00Senin5.3°5.3°0%75%ENE 2.5 KM/H
08:00Senin7.9°7.9°0%68%SSE 3.6 KM/H
09:00Senin10.1°10.5°0%63%SSW 3.2 KM/H
10:00Senin12.3°12.6°0%61%WSW 4.3 KM/H
11:00Senin14.3°14.6°0%59%W 5 KM/H
12:00Senin15.8°15.8°0%57%W 7.9 KM/H
13:0017.3°17.3°0%55%WNW 9.4 KM/H
14:00Senin18.6°18.6°0%53%WNW 10.1 KM/H
15:0019.7°19.7°0%51%WNW 9.7 KM/H
16:00Patchy rain nearby20.3°20.3°75%50%NW 9 KM/H
17:00Senin20.6°20.6°0%50%NW 8.6 KM/H
18:00Thundery outbreaks in nearby20.4°20.4°100%53%NW 10.1 KM/H
19:00Patchy light rain in area with thunder18.4°18.4°100%66%NW 11.2 KM/H
20:00Patchy rain nearby15.5°15.5°100%74%NW 8.6 KM/H
21:00Patchy rain nearby13.3°13.1°81%79%NNW 6.5 KM/H
22:00Senin12.1°12.6°0%81%NE 3.6 KM/H
23:00Senin11.2°11.5°0%82%E 4 KM/H




tutorials